Time;durP1;ratioP1;P1;durP2;ratioP2;P2;SDS_P1;SDS_P2;PMS_P1;PMS_P2;Temp;Humidity;BMP_temperature;BMP_pressure;BME280_temperature;BME280_humidity;BME280_pressure;Samples;Min_cycle;Max_cycle;Signal;HPM_P1;HPM_P2
2022/08/27 00:03:18;;;;;;;3.15;1.67;;;25.10;62.00;;;;;;20572306;28;20410;-78
2022/08/27 00:13:19;;;;;;;3.35;2.08;;;25.10;62.00;;;;;;20570750;28;20038;-78
2022/08/27 00:23:19;;;;;;;2.67;1.63;;;25.00;61.90;;;;;;20586557;28;20049;-77
2022/08/27 00:33:20;;;;;;;3.28;2.03;;;25.10;62.00;;;;;;20537105;28;20038;-78
2022/08/27 00:43:22;;;;;;;2.92;2.05;;;25.00;62.00;;;;;;20568685;28;20501;-78
2022/08/27 00:53:27;;;;;;;3.13;1.95;;;25.00;61.90;;;;;;20550502;28;20034;-78
2022/08/27 01:03:28;;;;;;;4.18;2.33;;;25.00;61.90;;;;;;20535509;28;20082;-78
2022/08/27 01:13:30;;;;;;;2.90;2.08;;;25.00;61.80;;;;;;20566055;28;20480;-77
2022/08/27 01:23:56;;;;;;;3.13;2.08;;;25.00;61.90;;;;;;20882314;23;20047;-78
2022/08/27 01:33:58;;;;;;;3.63;2.17;;;25.00;61.90;;;;;;20563235;28;20054;-78
2022/08/27 01:43:59;;;;;;;4.40;2.85;;;24.90;61.80;;;;;;20564280;28;20039;-78
2022/08/27 01:54:00;;;;;;;2.80;2.20;;;24.90;61.90;;;;;;20580696;28;20507;-78
2022/08/27 02:04:00;;;;;;;4.68;2.63;;;24.90;62.00;;;;;;20563406;28;20039;-78
2022/08/27 02:14:01;;;;;;;3.53;2.28;;;24.90;62.10;;;;;;20562348;28;20066;-78
2022/08/27 02:24:02;;;;;;;4.60;2.95;;;24.90;62.10;;;;;;20579033;28;20098;-78
2022/08/27 02:34:02;;;;;;;4.30;3.17;;;24.90;62.20;;;;;;20561581;28;20035;-78
2022/08/27 02:44:04;;;;;;;5.22;2.95;;;24.90;62.20;;;;;;20561355;28;20034;-78
2022/08/27 02:54:05;;;;;;;4.85;3.55;;;24.90;62.30;;;;;;20545509;28;20358;-78
2022/08/27 03:04:05;;;;;;;6.17;3.13;;;24.90;62.30;;;;;;20544836;28;20045;-77
2022/08/27 03:14:06;;;;;;;6.13;4.15;;;24.90;62.40;;;;;;20553317;28;20330;-77
2022/08/27 03:24:07;;;;;;;3.72;2.90;;;24.80;62.40;;;;;;20559612;28;20046;-78
2022/08/27 03:34:08;;;;;;;5.77;3.20;;;24.80;62.50;;;;;;20574178;28;20051;-77
2022/08/27 03:44:08;;;;;;;5.18;3.45;;;24.90;62.60;;;;;;20573090;28;20038;-78
2022/08/27 03:54:09;;;;;;;6.03;3.38;;;24.80;62.60;;;;;;20540746;28;20026;-78
2022/08/27 04:04:10;;;;;;;5.03;3.38;;;24.80;62.70;;;;;;20556278;28;20066;-78
2022/08/27 04:14:10;;;;;;;5.50;3.42;;;24.80;62.80;;;;;;20572055;28;20421;-78
2022/08/27 04:24:11;;;;;;;4.97;3.00;;;24.70;62.80;;;;;;20586134;28;20142;-78
2022/08/27 04:34:11;;;;;;;6.90;3.50;;;24.80;62.90;;;;;;20570480;28;20037;-78
2022/08/27 04:44:12;;;;;;;4.70;2.92;;;24.70;62.90;;;;;;20568859;28;20047;-79
2022/08/27 04:54:12;;;;;;;4.93;3.38;;;24.70;62.90;;;;;;20584335;28;20075;-78
2022/08/27 05:04:14;;;;;;;4.40;3.38;;;24.70;63.00;;;;;;20551920;28;20046;-79
2022/08/27 05:14:15;;;;;;;4.97;3.75;;;24.70;63.00;;;;;;20566526;28;20104;-79
2022/08/27 05:24:16;;;;;;;5.38;3.33;;;24.70;63.00;;;;;;20583149;28;20068;-80
2022/08/27 05:34:16;;;;;;;6.32;3.10;;;24.70;63.20;;;;;;20567501;28;20117;-80
2022/08/27 05:44:18;;;;;;;5.63;3.40;;;24.70;63.20;;;;;;20551341;28;20684;-79
2022/08/27 05:54:18;;;;;;;4.18;3.13;;;24.70;63.30;;;;;;20551090;28;20496;-76
2022/08/27 06:04:19;;;;;;;5.63;3.77;;;24.70;63.30;;;;;;20548116;28;20141;-80
2022/08/27 06:14:22;;;;;;;5.15;3.47;;;24.60;63.30;;;;;;20533576;28;20035;-77
2022/08/27 06:24:29;;;;;;;4.60;3.65;;;24.60;63.30;;;;;;20547881;28;20043;-78
2022/08/27 06:34:33;;;;;;;6.25;3.83;;;24.60;63.40;;;;;;20549639;28;20038;-77
2022/08/27 06:44:34;;;;;;;6.82;4.05;;;24.60;63.40;;;;;;20549946;28;20035;-76
2022/08/27 06:54:34;;;;;;;5.57;3.58;;;24.60;63.40;;;;;;20545875;28;20034;-77
2022/08/27 07:04:35;;;;;;;5.95;3.10;;;24.60;63.50;;;;;;20578341;28;20121;-78
2022/08/27 07:14:37;;;;;;;8.10;4.10;;;24.50;63.50;;;;;;20544539;28;20141;-77
2022/08/27 07:24:38;;;;;;;8.00;3.78;;;24.50;64.40;;;;;;20558375;28;20038;-75
2022/08/27 07:34:40;;;;;;;8.68;4.13;;;24.60;64.00;;;;;;20589902;28;20065;-78
2022/08/27 07:44:41;;;;;;;7.97;3.28;;;24.50;64.30;;;;;;20574859;28;20393;-77
2022/08/27 07:54:41;;;;;;;7.07;3.47;;;24.50;64.40;;;;;;20540875;28;20054;-76
2022/08/27 08:04:42;;;;;;;7.80;4.07;;;24.50;64.60;;;;;;20556301;28;20133;-76
2022/08/27 08:14:42;;;;;;;5.13;3.40;;;24.50;64.60;;;;;;20556594;28;20035;-76
2022/08/27 08:24:43;;;;;;;5.68;3.42;;;24.50;64.50;;;;;;20555180;28;20074;-74
2022/08/27 08:34:44;;;;;;;5.80;3.33;;;24.50;64.50;;;;;;20539016;28;20059;-75
2022/08/27 08:44:47;;;;;;;4.67;3.13;;;24.40;64.40;;;;;;20554267;28;20073;-80
2022/08/27 08:54:48;;;;;;;5.57;3.40;;;24.40;64.30;;;;;;20554842;28;20043;-78
2022/08/27 09:04:49;;;;;;;5.95;3.42;;;24.50;64.40;;;;;;20541651;28;20041;-75
2022/08/27 09:14:53;;;;;;;6.07;3.42;;;24.40;64.40;;;;;;20538702;28;20054;-71
2022/08/27 09:25:24;;;;;;;7.67;3.97;;;24.40;64.40;;;;;;20569281;28;20057;-77
2022/08/27 09:35:26;;;;;;;5.50;3.45;;;24.40;64.30;;;;;;20572027;28;20031;-76
2022/08/27 09:45:28;;;;;;;5.00;3.83;;;24.40;64.30;;;;;;20566294;28;20177;-80
2022/08/27 09:55:37;;;;;;;5.72;3.70;;;24.40;64.40;;;;;;20549220;28;20026;-72
2022/08/27 10:05:49;;;;;;;3.92;2.78;;;24.40;64.30;;;;;;20551946;28;20473;-79
2022/08/27 10:16:00;;;;;;;6.00;3.08;;;24.30;64.30;;;;;;20535886;28;20035;-77
2022/08/27 10:26:06;;;;;;;6.63;3.53;;;24.40;64.30;;;;;;20583425;28;20051;-79
2022/08/27 10:36:28;;;;;;;5.22;3.45;;;24.40;64.30;;;;;;20550029;28;20095;-83
2022/08/27 10:46:56;;;;;;;5.55;3.85;;;24.30;64.30;;;;;;20568311;28;20078;-80
2022/08/27 10:57:04;;;;;;;7.32;3.10;;;24.40;64.40;;;;;;20547504;28;20142;-81
2022/08/27 11:07:15;;;;;;;4.65;3.50;;;24.40;64.40;;;;;;20546326;28;20046;-80
2022/08/27 11:17:35;;;;;;;6.80;4.07;;;24.30;64.40;;;;;;20549406;28;20393;-80
2022/08/27 11:27:36;;;;;;;6.82;4.32;;;24.30;64.50;;;;;;20563360;28;20046;-78
2022/08/27 11:38:08;;;;;;;8.18;4.00;;;24.30;64.60;;;;;;20559207;28;20097;-81
2022/08/27 11:48:19;;;;;;;5.35;3.75;;;24.30;64.60;;;;;;20563814;28;20031;-82
2022/08/27 11:58:20;;;;;;;8.95;4.32;;;24.30;64.70;;;;;;20574864;28;20045;-77
2022/08/27 12:08:21;;;;;;;7.47;4.13;;;24.30;64.60;;;;;;20591787;28;20482;-80
2022/08/27 12:18:40;;;;;;;6.05;4.10;;;24.30;64.80;;;;;;20590088;28;20042;-81
2022/08/27 12:28:41;;;;;;;5.78;3.83;;;24.30;64.80;;;;;;20587855;28;20071;-74
2022/08/27 12:38:46;;;;;;;4.85;3.55;;;24.20;64.60;;;;;;20574031;28;20500;-82
2022/08/27 12:48:54;;;;;;;8.20;3.63;;;24.20;64.50;;;;;;20559372;28;20038;-83
2022/08/27 12:59:06;;;;;;;5.95;3.83;;;24.20;64.50;;;;;;20493469;28;20039;-82
2022/08/27 13:09:07;;;;;;;6.05;3.85;;;24.20;64.40;;;;;;20494405;29;20069;-83
2022/08/27 13:19:14;;;;;;;7.03;3.30;;;24.20;64.40;;;;;;20517202;28;20035;-79
2022/08/27 13:29:14;;;;;;;6.70;3.33;;;24.20;64.40;;;;;;20513173;28;20051;-82
2022/08/27 13:39:15;;;;;;;7.30;3.15;;;24.30;64.50;;;;;;20494491;28;20027;-87
2022/08/27 13:49:23;;;;;;;8.73;4.35;;;24.30;64.40;;;;;;20505189;28;20038;-83
2022/08/27 13:59:26;;;;;;;4.90;2.90;;;24.20;64.30;;;;;;20550887;28;20030;-79
2022/08/27 14:09:27;;;;;;;107.80;14.07;;;24.20;64.30;;;;;;20541259;28;20477;-84
2022/08/27 14:19:30;;;;;;;41.67;6.72;;;24.20;64.60;;;;;;20543951;28;20436;-92
2022/08/27 14:29:32;;;;;;;21.70;3.97;;;24.20;64.70;;;;;;20568004;28;20549;-78
2022/08/27 14:39:32;;;;;;;17.67;4.35;;;24.10;64.70;;;;;;20547434;28;20366;-81
2022/08/27 14:49:35;;;;;;;8.77;2.83;;;24.10;64.70;;;;;;20560536;28;20077;-79
2022/08/27 14:59:36;;;;;;;7.05;2.10;;;24.10;64.60;;;;;;20493126;28;20063;-80
2022/08/27 15:09:37;;;;;;;4.60;2.05;;;24.10;64.60;;;;;;20462207;28;20130;-86
2022/08/27 15:19:37;;;;;;;11.43;3.17;;;24.10;64.70;;;;;;20469620;28;21194;-83
2022/08/27 15:29:38;;;;;;;9.83;3.37;;;24.30;64.90;;;;;;20551533;28;20042;-83
2022/08/27 15:39:39;;;;;;;8.30;3.72;;;24.40;65.00;;;;;;20572012;28;20377;-81
2022/08/27 15:49:39;;;;;;;8.00;3.83;;;24.30;64.90;;;;;;20555619;28;20026;-80
2022/08/27 15:59:40;;;;;;;4.57;2.65;;;24.30;64.90;;;;;;20558328;28;20047;-82
2022/08/27 16:09:41;;;;;;;4.03;2.58;;;24.20;64.70;;;;;;20549451;28;20093;-85
2022/08/27 16:19:42;;;;;;;8.32;2.80;;;24.20;64.60;;;;;;20542956;28;20509;-78
2022/08/27 16:29:42;;;;;;;3.90;2.20;;;24.20;64.40;;;;;;20538180;28;20046;-82
2022/08/27 16:39:43;;;;;;;7.13;2.58;;;24.20;64.30;;;;;;20567764;28;20038;-80
2022/08/27 17:00:04;;;;;;;5.75;2.47;;;24.10;64.10;;;;;;20547791;28;20049;-82
2022/08/27 17:10:05;;;;;;;5.05;2.20;;;24.20;64.10;;;;;;20552093;28;20046;-80
2022/08/27 17:20:07;;;;;;;4.63;2.27;;;24.10;63.90;;;;;;20571291;28;20405;-82
2022/08/27 17:30:08;;;;;;;4.00;2.10;;;24.10;63.80;;;;;;20555059;28;20337;-79
2022/08/27 17:40:09;;;;;;;4.53;2.38;;;24.10;63.70;;;;;;20563832;28;20030;-80
2022/08/27 17:50:09;;;;;;;4.03;2.38;;;24.10;63.70;;;;;;20562217;28;20493;-79
2022/08/27 18:00:12;;;;;;;3.90;2.15;;;24.10;63.60;;;;;;20532172;28;20446;-80
2022/08/27 18:10:16;;;;;;;5.70;2.00;;;24.10;63.60;;;;;;20531090;28;20090;-80
2022/08/27 18:20:17;;;;;;;4.20;1.88;;;24.10;63.50;;;;;;20526502;28;20391;-80
2022/08/27 18:30:17;;;;;;;4.05;1.80;;;24.10;63.50;;;;;;20531922;28;20114;-80
2022/08/27 18:40:23;;;;;;;2.47;1.80;;;24.10;63.40;;;;;;20563348;28;20414;-79
2022/08/27 18:50:23;;;;;;;3.03;1.67;;;24.10;63.40;;;;;;20576261;28;20042;-80
2022/08/27 19:00:24;;;;;;;4.43;1.50;;;24.00;63.40;;;;;;20568784;28;20050;-80
2022/08/27 19:10:25;;;;;;;2.67;1.75;;;24.00;63.30;;;;;;20560364;28;20045;-80
2022/08/27 19:20:26;;;;;;;2.55;1.70;;;24.00;63.30;;;;;;20572487;28;20046;-82
2022/08/27 19:30:26;;;;;;;3.23;2.03;;;24.00;63.30;;;;;;20564035;28;20039;-81
2022/08/27 19:40:27;;;;;;;3.00;1.77;;;24.00;63.30;;;;;;20595552;28;20137;-80
2022/08/27 19:50:28;;;;;;;2.15;1.30;;;24.00;63.30;;;;;;20563024;28;20540;-82
2022/08/27 20:00:30;;;;;;;2.90;1.37;;;23.90;63.20;;;;;;20593030;28;20030;-80
2022/08/27 20:10:31;;;;;;;4.72;1.65;;;23.90;63.10;;;;;;20577792;28;20644;-80
2022/08/27 20:20:32;;;;;;;2.35;1.20;;;23.90;63.10;;;;;;20593433;28;20035;-81
2022/08/27 20:30:33;;;;;;;3.45;1.40;;;23.90;63.00;;;;;;20576900;28;20039;-80
2022/08/27 20:40:33;;;;;;;3.47;1.25;;;23.90;62.90;;;;;;20575109;28;20042;-81
2022/08/27 20:50:34;;;;;;;2.53;1.30;;;23.80;62.70;;;;;;20575202;28;20042;-81
2022/08/27 21:00:39;;;;;;;2.28;0.98;;;23.90;62.60;;;;;;20589686;28;20393;-80
2022/08/27 21:10:48;;;;;;;3.90;1.50;;;23.90;62.40;;;;;;20556754;28;20035;-81
2022/08/27 21:20:48;;;;;;;5.03;1.50;;;23.80;62.10;;;;;;20556329;28;20042;-82
2022/08/27 21:30:49;;;;;;;3.10;1.02;;;23.80;61.80;;;;;;20571720;28;20046;-81
2022/08/27 21:40:49;;;;;;;4.07;1.27;;;23.70;61.60;;;;;;20570325;28;20039;-80
2022/08/27 21:50:50;;;;;;;2.95;1.35;;;23.70;61.30;;;;;;20585956;28;20136;-80
2022/08/27 22:00:50;;;;;;;3.80;1.10;;;23.70;61.20;;;;;;20570455;28;20469;-81
2022/08/27 22:10:56;;;;;;;7.10;1.88;;;23.70;61.00;;;;;;20567825;28;20133;-81
2022/08/27 22:20:57;;;;;;;4.85;1.70;;;23.70;60.80;;;;;;20568677;28;20054;-80
2022/08/27 22:30:58;;;;;;;3.65;1.38;;;23.60;60.60;;;;;;20551868;28;20058;-81
2022/08/27 22:40:58;;;;;;;4.13;1.25;;;23.60;60.50;;;;;;20583496;28;20086;-81
2022/08/27 22:50:59;;;;;;;3.70;1.40;;;23.60;60.30;;;;;;20566765;28;20041;-81
2022/08/27 23:01:00;;;;;;;1.67;0.88;;;23.60;60.30;;;;;;20566588;28;20384;-81
2022/08/27 23:11:02;;;;;;;3.47;1.37;;;23.60;60.20;;;;;;20566443;28;20038;-80
2022/08/27 23:21:04;;;;;;;3.17;1.40;;;23.60;60.10;;;;;;20549449;28;20047;-80
2022/08/27 23:31:04;;;;;;;4.40;1.48;;;23.50;59.90;;;;;;20574267;28;20517;-80
2022/08/27 23:41:06;;;;;;;2.67;1.27;;;23.50;59.80;;;;;;20579442;28;20046;-80
2022/08/27 23:51:07;;;;;;;5.13;1.70;;;23.50;59.70;;;;;;20564028;28;20333;-81
